Terminal Aerodrome Forecast
Issued by NWS Cleveland, OH

Home | Current Version | Previous Version | Text Only | Print | Product List | Glossary On
Versions: 1 2 3 4 5 6 7 8 9 10 11 12 13 14 15 16 17 18 19 20 21 22 23 24 25 26 27 28 29 30 31 32 33 34 35 36 37 38
000
FTUS41 KCLE 192359 CCA
TAFCAK
TAF COR
KCAK 192359Z 2000/2024 01012G20KT P6SM VCSH OVC005
     FM201100 08010KT P6SM VCSH BKN004 OVC025
      TEMPO 2012/2016 4SM -SHRA
     FM201600 21008KT P6SM OVC015 PROB30 2016/2022 4SM -SHRA OVC008=

USA.gov is the U.S. government's official web portal to all federal, state and local government web resources and services.